Time;durP1;ratioP1;P1;durP2;ratioP2;P2;SDS_P1;SDS_P2;PMS_P1;PMS_P2;Temp;Humidity;BMP_temperature;BMP_pressure;BME280_temperature;BME280_humidity;BME280_pressure;Samples;Min_cycle;Max_cycle;Signal;HPM_P1;HPM_P2
2022/04/20 00:01:08;;;;;;;2.23;2.03;;;8.80;89.90;;;;;;5041262;28;20178;-84
2022/04/20 00:03:34;;;;;;;2.20;2.00;;;8.80;90.10;;;;;;5023951;28;20243;-84
2022/04/20 00:06:00;;;;;;;2.33;2.13;;;8.90;90.50;;;;;;5024771;28;20201;-84
2022/04/20 00:08:25;;;;;;;3.10;2.23;;;8.90;90.30;;;;;;5024355;28;20196;-83
2022/04/20 00:10:51;;;;;;;3.60;2.17;;;8.90;90.10;;;;;;5023552;28;20569;-84
2022/04/20 00:13:17;;;;;;;4.33;2.30;;;8.80;89.60;;;;;;5023740;28;20319;-84
2022/04/20 00:15:43;;;;;;;5.30;2.37;;;8.90;90.00;;;;;;5040448;28;20236;-84
2022/04/20 00:18:08;;;;;;;2.90;2.40;;;8.70;90.60;;;;;;5016126;28;20201;-84
2022/04/20 00:20:34;;;;;;;3.43;2.30;;;8.70;90.00;;;;;;5016312;28;20177;-83
2022/04/20 00:22:59;;;;;;;4.00;2.00;;;8.80;89.90;;;;;;5016153;28;20176;-83
2022/04/20 00:25:25;;;;;;;4.13;2.30;;;8.70;90.20;;;;;;5016460;28;20258;-83
2022/04/20 00:27:51;;;;;;;2.73;2.00;;;8.80;90.20;;;;;;5016290;28;20615;-83
2022/04/20 00:30:16;;;;;;;2.70;1.90;;;8.80;90.10;;;;;;5015958;28;20295;-85
2022/04/20 00:32:42;;;;;;;3.53;2.30;;;8.70;90.30;;;;;;5015438;28;20198;-83
2022/04/20 00:35:10;;;;;;;5.80;2.03;;;8.70;89.10;;;;;;5014636;28;20167;-83
2022/04/20 00:37:38;;;;;;;2.20;2.00;;;8.70;90.30;;;;;;5014281;28;20209;-83
2022/04/20 00:40:04;;;;;;;3.60;2.20;;;8.70;90.70;;;;;;5014482;28;20538;-83
2022/04/20 00:42:32;;;;;;;4.23;2.30;;;8.60;90.50;;;;;;5014919;28;20170;-83
2022/04/20 00:44:58;;;;;;;4.30;2.20;;;8.60;91.00;;;;;;5014625;28;20178;-83
2022/04/20 00:47:24;;;;;;;3.80;2.20;;;8.50;91.10;;;;;;5015154;28;20195;-83
2022/04/20 00:49:51;;;;;;;5.30;2.13;;;8.50;90.90;;;;;;5016504;28;20173;-83
2022/04/20 00:52:17;;;;;;;3.13;2.10;;;8.40;90.40;;;;;;5019165;28;20817;-83
2022/04/20 00:54:43;;;;;;;2.87;2.20;;;8.40;90.20;;;;;;5018994;28;20190;-83
2022/04/20 00:57:09;;;;;;;3.40;2.10;;;8.40;90.70;;;;;;5018697;28;20206;-83
2022/04/20 00:59:36;;;;;;;6.63;2.40;;;8.30;90.90;;;;;;5018686;28;20215;-83
2022/04/20 01:02:03;;;;;;;3.53;2.10;;;8.40;91.20;;;;;;5018876;28;20176;-83
2022/04/20 01:04:31;;;;;;;3.27;2.10;;;8.30;91.20;;;;;;5018877;28;20195;-83
2022/04/20 01:07:16;;;;;;;2.80;2.50;;;8.20;91.80;;;;;;5019090;28;20289;-83
2022/04/20 01:09:43;;;;;;;5.20;2.20;;;8.20;91.20;;;;;;5018944;28;20214;-83
2022/04/20 01:12:10;;;;;;;3.37;2.50;;;8.20;91.50;;;;;;5018828;28;20530;-83
2022/04/20 01:14:36;;;;;;;2.50;2.23;;;8.20;91.70;;;;;;5018407;28;20186;-84
2022/04/20 01:17:03;;;;;;;2.53;2.20;;;8.10;91.70;;;;;;5018568;28;20208;-84
2022/04/20 01:19:40;;;;;;;6.43;2.40;;;8.00;91.20;;;;;;5018249;28;20270;-83
2022/04/20 01:22:07;;;;;;;4.50;2.20;;;8.00;91.80;;;;;;5018903;28;20200;-85
2022/04/20 01:24:34;;;;;;;3.20;2.37;;;7.90;91.50;;;;;;5018337;28;20170;-84
2022/04/20 01:27:01;;;;;;;3.57;2.20;;;7.80;91.90;;;;;;5018445;28;20201;-83
2022/04/20 01:29:28;;;;;;;4.53;2.30;;;7.90;92.10;;;;;;5018349;28;20189;-84
2022/04/20 01:31:54;;;;;;;6.70;2.20;;;7.90;91.80;;;;;;5018621;28;20543;-83
2022/04/20 01:34:19;;;;;;;4.67;2.27;;;8.00;91.40;;;;;;5018222;28;20178;-83
2022/04/20 01:36:45;;;;;;;3.40;2.60;;;7.70;92.00;;;;;;5018056;28;20233;-83
2022/04/20 01:39:11;;;;;;;2.33;2.07;;;7.70;92.30;;;;;;5018107;28;20635;-84
2022/04/20 01:41:37;;;;;;;2.97;2.10;;;7.50;92.70;;;;;;5017930;28;20182;-83
2022/04/20 01:44:03;;;;;;;3.90;2.30;;;7.50;92.60;;;;;;5018133;28;20184;-83
2022/04/20 01:46:28;;;;;;;3.03;2.10;;;7.50;93.00;;;;;;5018018;28;20204;-83
2022/04/20 01:48:54;;;;;;;2.83;1.93;;;7.40;93.30;;;;;;5018317;28;20169;-83
2022/04/20 01:54:04;;;;;;;4.97;2.57;;;7.40;93.90;;;;;;5036071;28;20649;-84
2022/04/20 01:56:30;;;;;;;2.80;2.43;;;7.40;94.00;;;;;;5035444;28;20280;-84
2022/04/20 01:58:55;;;;;;;2.73;2.50;;;7.30;94.90;;;;;;5017963;28;20158;-83
2022/04/20 02:04:06;;;;;;;2.37;2.17;;;7.20;96.50;;;;;;5035592;28;20193;-84
2022/04/20 02:06:32;;;;;;;4.00;2.30;;;7.30;96.00;;;;;;5017168;28;20204;-84
2022/04/20 02:08:58;;;;;;;3.50;2.80;;;7.30;95.80;;;;;;5017065;28;20178;-84
2022/04/20 02:11:24;;;;;;;3.47;2.40;;;7.30;95.80;;;;;;5016820;28;20184;-85
2022/04/20 02:13:49;;;;;;;6.93;2.40;;;7.20;96.00;;;;;;5017008;28;20174;-84
2022/04/20 02:16:15;;;;;;;4.17;2.57;;;7.00;95.90;;;;;;5017534;28;20207;-84
2022/04/20 02:18:41;;;;;;;3.10;2.33;;;7.00;95.20;;;;;;5019119;28;20636;-84
2022/04/20 02:21:06;;;;;;;3.07;2.57;;;7.10;94.40;;;;;;5019077;28;20193;-84
2022/04/20 02:23:32;;;;;;;2.60;2.40;;;6.90;95.90;;;;;;5018660;28;20174;-84
2022/04/20 02:25:57;;;;;;;3.20;2.30;;;6.80;96.60;;;;;;5018914;28;20197;-83
2022/04/20 02:28:23;;;;;;;3.53;2.47;;;6.70;97.00;;;;;;5018786;28;20170;-83
2022/04/20 02:30:49;;;;;;;4.33;2.40;;;6.90;97.70;;;;;;5019084;28;20184;-83
2022/04/20 02:33:14;;;;;;;3.77;2.30;;;6.90;98.20;;;;;;5018692;28;20200;-84
2022/04/20 02:35:40;;;;;;;3.60;2.60;;;6.80;99.00;;;;;;5018806;28;20305;-84
2022/04/20 02:38:10;;;;;;;3.57;2.37;;;6.70;99.80;;;;;;5016785;28;20193;-83
2022/04/20 02:40:40;;;;;;;3.33;2.43;;;6.70;99.90;;;;;;5016567;28;20214;-83
2022/04/20 02:43:05;;;;;;;4.57;2.40;;;6.60;99.90;;;;;;5015903;28;20191;-83
2022/04/20 02:45:31;;;;;;;4.00;2.60;;;6.60;99.90;;;;;;5016491;28;20183;-83
2022/04/20 02:47:57;;;;;;;2.73;2.23;;;6.60;99.90;;;;;;5016433;28;20172;-83
2022/04/20 02:50:22;;;;;;;4.97;2.70;;;6.60;99.90;;;;;;5016182;28;20200;-83
2022/04/20 02:52:48;;;;;;;6.60;2.90;;;6.70;99.90;;;;;;5016120;28;20545;-82
2022/04/20 02:55:14;;;;;;;3.57;2.57;;;6.60;99.90;;;;;;5016472;28;20178;-83
2022/04/20 02:57:39;;;;;;;3.83;2.60;;;6.60;99.90;;;;;;5016103;28;20567;-83
2022/04/20 03:00:06;;;;;;;5.07;2.20;;;6.40;99.90;;;;;;5016217;28;20274;-83
2022/04/20 03:02:32;;;;;;;3.73;2.37;;;6.40;99.90;;;;;;5016088;28;20171;-83
2022/04/20 03:04:57;;;;;;;4.70;2.47;;;6.40;99.90;;;;;;5016141;28;20537;-83
2022/04/20 03:07:23;;;;;;;3.43;2.37;;;6.60;99.90;;;;;;5015825;28;20199;-83
2022/04/20 03:09:49;;;;;;;4.40;2.90;;;6.40;99.90;;;;;;5018134;28;20199;-83
2022/04/20 03:12:14;;;;;;;3.87;2.60;;;6.50;99.90;;;;;;5036770;28;20203;-84
2022/04/20 03:14:40;;;;;;;4.33;2.70;;;6.60;99.90;;;;;;5019741;28;20243;-84
2022/04/20 03:17:06;;;;;;;5.07;2.60;;;6.70;99.90;;;;;;5019968;28;20225;-83
2022/04/20 03:19:31;;;;;;;5.27;3.13;;;6.60;99.90;;;;;;5019167;28;20175;-84
2022/04/20 03:21:57;;;;;;;3.00;2.33;;;6.60;99.90;;;;;;5019691;28;20308;-85
2022/04/20 03:24:23;;;;;;;6.33;2.50;;;6.60;99.90;;;;;;5019298;28;20301;-84
2022/04/20 03:26:48;;;;;;;4.03;2.60;;;6.60;99.90;;;;;;5019217;28;20570;-84
2022/04/20 03:29:14;;;;;;;4.77;2.77;;;6.60;99.90;;;;;;5019300;28;20739;-84
2022/04/20 03:31:39;;;;;;;4.73;2.50;;;6.40;99.90;;;;;;5019180;28;20180;-84
2022/04/20 03:34:05;;;;;;;3.90;2.47;;;6.40;99.90;;;;;;5019743;28;20208;-83
2022/04/20 03:36:31;;;;;;;5.87;2.80;;;6.50;99.90;;;;;;5019600;28;20206;-84
2022/04/20 03:38:57;;;;;;;4.97;3.20;;;6.60;99.90;;;;;;5017990;28;20180;-84
2022/04/20 03:41:22;;;;;;;4.27;2.73;;;6.60;99.90;;;;;;5018015;28;20207;-84
2022/04/20 03:43:49;;;;;;;3.77;2.60;;;6.50;99.90;;;;;;5017236;28;20224;-83
2022/04/20 03:46:15;;;;;;;3.73;2.73;;;6.50;99.90;;;;;;5015026;28;20204;-83
2022/04/20 03:48:40;;;;;;;7.67;2.73;;;6.60;99.90;;;;;;5015163;28;20180;-83
2022/04/20 03:51:07;;;;;;;5.53;3.03;;;6.60;99.90;;;;;;5014823;28;20185;-83
2022/04/20 03:53:32;;;;;;;4.67;2.47;;;6.30;99.90;;;;;;5014822;28;20683;-82
2022/04/20 03:55:58;;;;;;;3.53;2.40;;;6.30;99.90;;;;;;5015254;28;20201;-82
2022/04/20 03:58:24;;;;;;;4.83;2.80;;;6.20;99.90;;;;;;5015091;28;20569;-82
2022/04/20 04:00:51;;;;;;;5.20;2.30;;;6.30;99.90;;;;;;5014882;28;20190;-82
2022/04/20 04:03:17;;;;;;;5.40;3.50;;;6.40;99.90;;;;;;5014850;28;20175;-81
2022/04/20 04:05:43;;;;;;;7.90;2.80;;;6.30;99.90;;;;;;5014746;28;20194;-82
2022/04/20 04:08:09;;;;;;;3.47;2.70;;;6.20;99.90;;;;;;5014704;28;20272;-82
2022/04/20 04:10:35;;;;;;;4.03;2.50;;;6.20;99.60;;;;;;5013744;28;20631;-82
2022/04/20 04:13:01;;;;;;;9.53;2.83;;;6.30;99.60;;;;;;5014139;28;20240;-82
2022/04/20 04:15:27;;;;;;;3.87;2.53;;;6.30;99.90;;;;;;5014844;28;20186;-82
2022/04/20 04:17:58;;;;;;;2.83;2.57;;;6.20;99.80;;;;;;5014699;28;20209;-82
2022/04/20 04:20:26;;;;;;;5.57;2.60;;;6.20;99.70;;;;;;5014525;28;20703;-82
2022/04/20 04:22:52;;;;;;;3.00;2.70;;;6.10;99.70;;;;;;5014498;28;20260;-82
2022/04/20 04:25:18;;;;;;;4.23;2.73;;;6.10;99.90;;;;;;5013721;28;20178;-82
2022/04/20 04:27:44;;;;;;;3.90;2.20;;;6.10;99.90;;;;;;5014876;28;20620;-82
2022/04/20 04:30:11;;;;;;;3.77;2.63;;;6.10;99.70;;;;;;5014903;28;20180;-81
2022/04/20 04:32:37;;;;;;;4.93;3.03;;;6.10;99.90;;;;;;5014419;28;20180;-82
2022/04/20 04:35:03;;;;;;;4.57;2.80;;;5.90;99.90;;;;;;5014751;28;20208;-82
2022/04/20 04:37:28;;;;;;;5.80;2.67;;;6.10;99.90;;;;;;5014404;28;20696;-82
2022/04/20 04:39:54;;;;;;;7.80;3.30;;;6.10;99.90;;;;;;5014531;28;20564;-82
2022/04/20 04:42:20;;;;;;;3.20;2.70;;;6.10;99.90;;;;;;5014276;28;20189;-82
2022/04/20 04:44:45;;;;;;;4.50;3.20;;;6.10;99.90;;;;;;5014859;28;20216;-82
2022/04/20 04:49:55;;;;;;;4.40;2.50;;;6.10;99.90;;;;;;5032850;28;20196;-82
2022/04/20 04:52:21;;;;;;;3.37;2.80;;;6.00;99.90;;;;;;5014452;28;20178;-82
2022/04/20 04:54:47;;;;;;;7.67;2.67;;;6.00;99.90;;;;;;5014404;28;20178;-82
2022/04/20 04:57:13;;;;;;;3.83;2.80;;;5.90;99.90;;;;;;5014723;28;20209;-82
2022/04/20 04:59:40;;;;;;;4.43;3.23;;;6.00;99.90;;;;;;5014455;28;20182;-82
2022/04/20 05:02:06;;;;;;;5.40;3.03;;;6.20;99.90;;;;;;5014437;28;20174;-82
2022/04/20 05:04:33;;;;;;;4.77;2.90;;;6.20;99.90;;;;;;5014507;28;20189;-82
2022/04/20 05:06:59;;;;;;;8.80;3.30;;;6.20;99.90;;;;;;5014481;28;20573;-82
2022/04/20 05:09:25;;;;;;;5.40;3.10;;;6.30;99.90;;;;;;5014606;28;20176;-82
2022/04/20 05:11:51;;;;;;;5.17;3.07;;;6.40;99.90;;;;;;5014205;28;20216;-82
2022/04/20 05:14:17;;;;;;;7.03;3.30;;;6.40;99.90;;;;;;5014116;28;20270;-82
2022/04/20 05:16:43;;;;;;;7.33;3.60;;;6.40;99.90;;;;;;5014230;28;20685;-82
2022/04/20 05:19:09;;;;;;;9.53;3.33;;;6.60;99.90;;;;;;5014214;28;20171;-82
2022/04/20 05:21:35;;;;;;;6.33;3.10;;;6.60;99.90;;;;;;5016841;28;20211;-82
2022/04/20 05:24:01;;;;;;;8.50;3.00;;;6.80;99.90;;;;;;5017146;28;20177;-82
2022/04/20 05:26:26;;;;;;;10.43;3.40;;;6.90;99.90;;;;;;5018021;28;20704;-82
2022/04/20 05:28:53;;;;;;;7.77;3.23;;;7.00;99.90;;;;;;5017156;28;20178;-82
2022/04/20 05:31:19;;;;;;;5.43;2.80;;;7.30;99.50;;;;;;5017806;28;20177;-82
2022/04/20 05:33:45;;;;;;;7.80;3.20;;;7.50;98.50;;;;;;5017015;28;20550;-82
2022/04/20 05:36:12;;;;;;;6.43;2.80;;;7.70;97.80;;;;;;5019152;28;20248;-82
2022/04/20 05:41:39;;;;;;;5.47;3.00;;;7.80;98.40;;;;;;5038750;28;20178;-82
2022/04/20 05:44:05;;;;;;;6.77;2.83;;;8.30;97.10;;;;;;5021668;28;20157;-83
2022/04/20 05:46:33;;;;;;;7.97;2.73;;;8.20;96.40;;;;;;5021908;28;20205;-82
2022/04/20 05:48:59;;;;;;;4.33;2.57;;;8.60;96.50;;;;;;5022116;28;20194;-82
2022/04/20 05:51:25;;;;;;;3.97;2.57;;;8.70;96.50;;;;;;5022008;28;20176;-83
2022/04/20 05:53:50;;;;;;;5.33;2.57;;;8.70;95.60;;;;;;5021751;28;20246;-83
2022/04/20 05:56:16;;;;;;;5.70;2.70;;;8.80;95.30;;;;;;5022036;28;20197;-82
2022/04/20 05:58:44;;;;;;;6.33;2.67;;;9.00;95.70;;;;;;5020920;28;20530;-82
2022/04/20 06:01:10;;;;;;;5.13;2.23;;;8.70;94.70;;;;;;5020304;28;20326;-82
2022/04/20 06:03:36;;;;;;;5.70;2.47;;;9.10;94.20;;;;;;5020252;28;20200;-82
2022/04/20 06:06:03;;;;;;;6.00;3.00;;;9.70;94.90;;;;;;5019744;28;20669;-82
2022/04/20 06:08:30;;;;;;;6.23;2.30;;;9.70;93.20;;;;;;5020075;28;20182;-82
2022/04/20 06:10:57;;;;;;;3.27;2.40;;;9.60;93.00;;;;;;5020472;28;20185;-83
2022/04/20 06:13:28;;;;;;;6.07;2.50;;;9.80;92.60;;;;;;5019593;28;20180;-82
2022/04/20 06:15:54;;;;;;;3.90;2.40;;;10.40;91.60;;;;;;5020530;28;20301;-82
2022/04/20 06:18:20;;;;;;;3.33;2.23;;;10.30;91.10;;;;;;5019595;28;20681;-82
2022/04/20 06:20:46;;;;;;;4.63;2.60;;;10.30;91.30;;;;;;5018908;28;20237;-82
2022/04/20 06:23:12;;;;;;;4.40;3.00;;;10.90;90.60;;;;;;5018966;28;20197;-83
2022/04/20 06:25:38;;;;;;;5.23;2.40;;;10.70;91.00;;;;;;5019901;28;20198;-82
2022/04/20 06:28:04;;;;;;;3.30;2.40;;;10.50;90.50;;;;;;5019804;28;20185;-83
2022/04/20 06:30:30;;;;;;;3.33;2.37;;;11.20;89.40;;;;;;5019515;28;20224;-83
2022/04/20 06:32:55;;;;;;;5.83;2.27;;;10.90;89.10;;;;;;5019917;28;20180;-83
2022/04/20 06:35:21;;;;;;;2.53;2.30;;;11.00;90.00;;;;;;5019584;28;20178;-82
2022/04/20 06:37:48;;;;;;;3.53;2.17;;;11.50;90.20;;;;;;5019768;28;20675;-83
2022/04/20 06:40:14;;;;;;;3.13;1.87;;;11.80;87.60;;;;;;5019542;28;20637;-83
2022/04/20 06:42:40;;;;;;;2.63;2.20;;;12.00;87.70;;;;;;5019390;28;20665;-83
2022/04/20 06:45:06;;;;;;;7.10;2.13;;;12.20;86.10;;;;;;5019996;28;20178;-83
2022/04/20 06:47:33;;;;;;;4.20;2.27;;;12.20;86.60;;;;;;5018855;28;20232;-83
2022/04/20 06:49:59;;;;;;;2.27;2.03;;;12.20;84.80;;;;;;5019950;28;20714;-82
2022/04/20 07:00:39;;;;;;;5.47;2.17;;;12.80;83.90;;;;;;5038106;28;20243;-83
2022/04/20 07:03:08;;;;;;;3.13;2.40;;;12.40;85.60;;;;;;5020057;28;20635;-83
2022/04/20 07:05:35;;;;;;;2.60;2.20;;;13.00;84.90;;;;;;5020132;28;20186;-83
2022/04/20 07:08:01;;;;;;;7.77;2.30;;;12.40;86.00;;;;;;5020094;28;20175;-82
2022/04/20 07:10:28;;;;;;;3.70;2.20;;;13.00;83.60;;;;;;5019968;28;20185;-82
2022/04/20 07:12:53;;;;;;;5.63;2.43;;;13.10;84.80;;;;;;5019905;28;20177;-83
2022/04/20 07:15:19;;;;;;;5.30;2.10;;;13.20;85.10;;;;;;5020145;28;20328;-83
2022/04/20 07:17:45;;;;;;;3.50;2.53;;;13.40;85.10;;;;;;5019949;28;20209;-82
2022/04/20 07:20:17;;;;;;;5.07;2.20;;;13.40;80.40;;;;;;5019505;28;20593;-83
2022/04/20 07:22:46;;;;;;;3.17;2.10;;;14.00;82.20;;;;;;5019696;28;20178;-82
2022/04/20 07:25:12;;;;;;;2.80;2.22;;;14.10;79.10;;;;;;5020314;28;20174;-82
2022/04/20 07:27:37;;;;;;;5.32;2.40;;;14.30;79.30;;;;;;5020139;28;20611;-82
2022/04/20 07:30:04;;;;;;;4.95;2.13;;;14.30;81.30;;;;;;5020794;28;20642;-83
2022/04/20 07:32:29;;;;;;;6.77;2.30;;;14.00;78.60;;;;;;5020144;28;20205;-83
2022/04/20 07:34:55;;;;;;;3.27;2.20;;;14.40;80.20;;;;;;5020754;28;20550;-82
2022/04/20 07:37:20;;;;;;;6.22;2.20;;;13.70;79.70;;;;;;5020029;28;20205;-82
2022/04/20 07:39:47;;;;;;;4.90;2.35;;;14.50;80.30;;;;;;5020714;28;20185;-82
2022/04/20 07:42:13;;;;;;;2.63;2.20;;;14.80;79.90;;;;;;5020339;28;20174;-82
2022/04/20 07:44:38;;;;;;;2.75;2.20;;;15.10;80.20;;;;;;5020155;28;20185;-82
2022/04/20 07:47:04;;;;;;;2.85;2.03;;;15.30;76.90;;;;;;5020305;28;20359;-83
2022/04/20 07:52:19;;;;;;;2.75;2.35;;;14.70;76.80;;;;;;5038252;28;20181;-82
2022/04/20 07:54:45;;;;;;;7.18;2.40;;;15.20;80.40;;;;;;5020669;28;20180;-82
2022/04/20 07:57:14;;;;;;;3.15;2.60;;;15.40;76.70;;;;;;5020329;28;20201;-82
2022/04/20 07:59:40;;;;;;;3.00;2.20;;;15.80;76.20;;;;;;5020708;28;20211;-82
2022/04/20 08:02:06;;;;;;;2.80;2.10;;;15.00;75.00;;;;;;5020481;28;20265;-81
2022/04/20 08:04:32;;;;;;;2.78;2.15;;;14.40;76.50;;;;;;5020399;28;20174;-82
2022/04/20 08:06:57;;;;;;;11.57;2.28;;;15.20;77.30;;;;;;5017657;28;20762;-83
2022/04/20 08:09:26;;;;;;;5.35;2.20;;;15.60;76.70;;;;;;5015248;28;20174;-83
2022/04/20 08:11:52;;;;;;;2.53;2.33;;;16.20;75.90;;;;;;5018353;28;20181;-81
2022/04/20 08:14:18;;;;;;;3.72;2.08;;;15.40;75.30;;;;;;5014576;28;20642;-82
2022/04/20 08:16:44;;;;;;;4.22;2.28;;;16.10;76.10;;;;;;5015096;28;20209;-82
2022/04/20 08:19:10;;;;;;;4.43;2.10;;;16.30;73.30;;;;;;5016185;28;20166;-82
2022/04/20 08:21:36;;;;;;;3.78;2.55;;;16.40;74.70;;;;;;5018356;28;20213;-82
2022/04/20 08:24:03;;;;;;;3.15;2.22;;;16.60;73.20;;;;;;5017718;28;20178;-82
2022/04/20 08:26:29;;;;;;;2.50;2.30;;;16.90;73.20;;;;;;5019266;28;20212;-83
2022/04/20 08:28:54;;;;;;;4.35;1.98;;;17.30;71.10;;;;;;5018706;28;20185;-82
2022/04/20 08:31:20;;;;;;;3.10;2.33;;;17.00;71.40;;;;;;5018221;28;20269;-82
2022/04/20 08:33:46;;;;;;;4.85;2.30;;;17.00;71.30;;;;;;5017934;28;20201;-82
2022/04/20 08:36:12;;;;;;;5.07;2.28;;;16.90;70.00;;;;;;5018874;28;20189;-82
2022/04/20 08:38:38;;;;;;;3.28;2.50;;;16.70;73.90;;;;;;5019199;28;20665;-82
2022/04/20 08:41:05;;;;;;;2.05;1.92;;;16.70;72.10;;;;;;5017467;28;20228;-82
2022/04/20 08:43:32;;;;;;;5.45;2.42;;;16.50;71.30;;;;;;5018736;28;20174;-82
2022/04/20 08:46:01;;;;;;;3.50;2.00;;;17.20;70.80;;;;;;5018844;28;20194;-83
2022/04/20 08:48:28;;;;;;;3.33;2.03;;;16.70;69.40;;;;;;5019525;28;20178;-82
2022/04/20 08:50:54;;;;;;;3.17;2.20;;;16.80;71.60;;;;;;5019335;28;20197;-83
2022/04/20 08:53:21;;;;;;;3.45;2.45;;;16.50;69.60;;;;;;5019246;28;20181;-83
2022/04/20 08:55:47;;;;;;;3.25;2.50;;;16.90;70.20;;;;;;5018698;28;20193;-82
2022/04/20 08:58:13;;;;;;;4.35;2.30;;;17.10;69.80;;;;;;5018367;28;20617;-82
2022/04/20 09:00:39;;;;;;;5.72;2.45;;;17.60;69.20;;;;;;5035516;28;20214;-82
2022/04/20 09:03:05;;;;;;;2.50;2.30;;;17.40;71.40;;;;;;5018089;28;20170;-81
2022/04/20 09:05:33;;;;;;;5.68;2.50;;;17.10;68.90;;;;;;5018082;28;20174;-81
2022/04/20 09:08:10;;;;;;;3.30;2.42;;;16.20;69.60;;;;;;5018974;28;20234;-81
2022/04/20 09:10:36;;;;;;;2.95;2.50;;;17.50;68.70;;;;;;5020526;28;20211;-82
2022/04/20 09:13:09;;;;;;;4.47;2.20;;;17.10;69.50;;;;;;5022248;28;20238;-82
2022/04/20 09:15:36;;;;;;;2.70;2.50;;;16.60;73.80;;;;;;5022524;28;20189;-80
2022/04/20 09:18:03;;;;;;;4.07;2.37;;;16.90;71.70;;;;;;5022542;28;20204;-82
2022/04/20 09:20:31;;;;;;;3.17;2.27;;;17.70;70.10;;;;;;5021893;28;20716;-82
2022/04/20 09:23:07;;;;;;;3.30;2.47;;;17.10;68.80;;;;;;5022081;28;20182;-82
2022/04/20 09:25:45;;;;;;;2.58;2.10;;;17.50;72.30;;;;;;5022917;28;20546;-82
2022/04/20 09:28:11;;;;;;;4.32;2.60;;;18.00;68.10;;;;;;5021835;28;20546;-83
2022/04/20 09:30:39;;;;;;;5.28;2.20;;;17.40;69.50;;;;;;5022687;28;20245;-81
2022/04/20 09:33:10;;;;;;;2.90;2.60;;;17.70;69.40;;;;;;5021688;28;20668;-83
2022/04/20 09:35:51;;;;;;;2.40;2.20;;;16.70;69.80;;;;;;5021128;28;20681;-82
2022/04/20 09:38:22;;;;;;;3.55;2.30;;;17.70;67.80;;;;;;5022326;28;20281;-82
2022/04/20 09:40:49;;;;;;;6.13;2.50;;;16.90;69.10;;;;;;5021996;28;20197;-83
2022/04/20 09:43:17;;;;;;;4.40;2.63;;;17.20;69.70;;;;;;5021140;28;20178;-82
2022/04/20 09:45:43;;;;;;;5.32;2.42;;;18.40;67.30;;;;;;5021869;28;20197;-81
2022/04/20 09:51:07;;;;;;;4.63;2.63;;;17.20;68.10;;;;;;5039942;28;20178;-82
2022/04/20 09:53:33;;;;;;;4.75;2.25;;;17.20;67.10;;;;;;5022090;28;20173;-82
2022/04/20 09:56:24;;;;;;;5.05;2.38;;;16.80;68.20;;;;;;5022235;28;20190;-82
2022/04/20 09:59:16;;;;;;;3.08;2.78;;;17.20;66.90;;;;;;5022504;28;20184;-82
2022/04/20 10:01:47;;;;;;;5.50;2.65;;;17.50;68.20;;;;;;5019630;28;20194;-80
2022/04/20 10:04:14;;;;;;;12.00;3.13;;;17.60;66.40;;;;;;5022110;28;20162;-82
2022/04/20 10:06:43;;;;;;;3.30;2.58;;;17.70;70.10;;;;;;5022022;28;20198;-82
2022/04/20 10:09:09;;;;;;;3.75;2.78;;;18.30;68.90;;;;;;5022588;28;20576;-82
2022/04/20 10:11:36;;;;;;;2.88;2.60;;;17.50;67.80;;;;;;5021946;28;20261;-81
2022/04/20 10:16:51;;;;;;;5.38;2.72;;;17.60;66.10;;;;;;5039640;28;20200;-81
2022/04/20 10:19:26;;;;;;;4.53;2.55;;;17.10;68.20;;;;;;5021591;28;20170;-82
2022/04/20 10:21:53;;;;;;;3.95;3.08;;;18.30;65.60;;;;;;5020246;28;20169;-82
2022/04/20 10:24:29;;;;;;;4.95;2.83;;;17.70;64.60;;;;;;5019664;28;20174;-81
2022/04/20 10:27:02;;;;;;;5.00;2.63;;;18.30;67.40;;;;;;5020421;28;20220;-83
2022/04/20 10:29:42;;;;;;;5.75;2.90;;;19.20;63.80;;;;;;5020243;28;20237;-82
2022/04/20 10:32:22;;;;;;;2.38;2.17;;;18.20;66.90;;;;;;5019789;28;20181;-82
2022/04/20 10:34:50;;;;;;;2.50;2.13;;;19.10;65.60;;;;;;5020264;28;20178;-82
2022/04/20 10:37:20;;;;;;;4.10;2.30;;;18.20;64.10;;;;;;5020354;28;20206;-81
2022/04/20 10:39:47;;;;;;;2.15;1.75;;;17.60;65.90;;;;;;5019951;28;20177;-83
2022/04/20 10:42:14;;;;;;;3.58;2.70;;;17.80;64.50;;;;;;5019874;28;20634;-83
2022/04/20 10:45:07;;;;;;;5.38;2.70;;;17.50;64.40;;;;;;5037740;28;20166;-83
2022/04/20 10:47:40;;;;;;;5.03;2.53;;;18.10;67.70;;;;;;5019800;28;20570;-82
2022/04/20 10:50:14;;;;;;;2.40;2.20;;;17.50;67.70;;;;;;5020171;28;20170;-83
2022/04/20 10:52:42;;;;;;;3.17;2.53;;;17.40;65.10;;;;;;5020158;28;20296;-82
2022/04/20 10:55:12;;;;;;;6.50;2.58;;;18.00;65.80;;;;;;5019944;28;20193;-82
2022/04/20 10:57:39;;;;;;;3.95;2.72;;;17.90;66.90;;;;;;5020292;28;20278;-82
2022/04/20 11:00:17;;;;;;;3.53;2.50;;;17.50;67.50;;;;;;5019196;28;20193;-82
2022/04/20 11:02:54;;;;;;;3.28;2.70;;;18.20;68.10;;;;;;5019444;28;20177;-82
2022/04/20 11:05:24;;;;;;;2.97;2.58;;;17.70;67.20;;;;;;5020430;28;20177;-81
2022/04/20 11:08:04;;;;;;;4.38;2.40;;;17.40;69.10;;;;;;5019946;28;20177;-82
2022/04/20 11:10:31;;;;;;;5.45;2.90;;;19.20;64.20;;;;;;5018840;28;20216;-82
2022/04/20 11:19:10;;;;;;;3.30;2.90;;;18.40;65.50;;;;;;5039111;28;20189;-80
2022/04/20 11:21:37;;;;;;;2.50;2.30;;;18.00;67.20;;;;;;5020537;28;20519;-82
2022/04/20 11:24:08;;;;;;;2.40;2.20;;;17.30;66.30;;;;;;5020520;28;20646;-82
2022/04/20 11:26:51;;;;;;;6.22;2.33;;;17.40;66.60;;;;;;5038545;28;20201;-82
2022/04/20 11:29:21;;;;;;;4.85;2.22;;;17.80;66.40;;;;;;5019525;28;20178;-83
2022/04/20 11:32:03;;;;;;;4.07;2.40;;;17.70;70.90;;;;;;5019780;28;20198;-81
2022/04/20 11:34:33;;;;;;;3.78;2.63;;;17.70;70.80;;;;;;5020570;28;20260;-81
2022/04/20 11:37:00;;;;;;;3.55;2.30;;;17.50;69.00;;;;;;5020152;28;20268;-82
2022/04/20 11:39:30;;;;;;;2.38;2.13;;;17.30;67.80;;;;;;5020790;28;20177;-81
2022/04/20 11:41:58;;;;;;;7.00;2.45;;;17.70;68.20;;;;;;5020841;28;20166;-81
2022/04/20 11:44:28;;;;;;;5.03;2.35;;;17.50;67.10;;;;;;5019486;28;20180;-82
2022/04/20 11:47:00;;;;;;;2.67;2.20;;;18.10;66.00;;;;;;5019360;28;20197;-82
2022/04/20 11:49:40;;;;;;;2.47;1.80;;;17.50;68.30;;;;;;5019592;28;20265;-82
2022/04/20 11:52:09;;;;;;;2.08;1.80;;;17.70;65.70;;;;;;5018911;28;20205;-82
2022/04/20 11:54:36;;;;;;;2.15;1.92;;;18.50;64.50;;;;;;5018653;28;20602;-82
2022/04/20 11:57:06;;;;;;;2.95;2.17;;;20.50;60.60;;;;;;5019157;28;20213;-81
2022/04/20 11:59:32;;;;;;;5.28;2.10;;;20.70;62.80;;;;;;5020538;28;20178;-81
2022/04/20 12:01:58;;;;;;;5.07;2.13;;;18.30;64.30;;;;;;5018924;28;20173;-83
2022/04/20 12:04:28;;;;;;;2.00;1.90;;;18.00;64.60;;;;;;5019991;28;20173;-83
2022/04/20 12:07:01;;;;;;;3.25;2.08;;;18.90;64.70;;;;;;5019774;28;20194;-83
2022/04/20 12:09:30;;;;;;;2.50;2.30;;;18.50;64.10;;;;;;5019065;28;20209;-81
2022/04/20 12:12:01;;;;;;;3.38;2.42;;;18.10;68.50;;;;;;5018715;28;20643;-82
2022/04/20 12:14:38;;;;;;;4.90;2.33;;;17.80;66.80;;;;;;5019467;28;20186;-82
2022/04/20 12:17:19;;;;;;;2.20;2.00;;;17.70;66.40;;;;;;5019700;28;20240;-80
2022/04/20 12:19:46;;;;;;;3.90;2.10;;;17.90;67.40;;;;;;5019405;28;20174;-82
2022/04/20 12:22:17;;;;;;;3.22;2.42;;;16.90;66.50;;;;;;5019701;28;20198;-81
2022/04/20 12:24:43;;;;;;;3.47;2.53;;;17.00;67.40;;;;;;5020499;28;20648;-82
2022/04/20 12:27:21;;;;;;;2.90;2.53;;;17.50;66.90;;;;;;5038525;28;20194;-81
2022/04/20 12:29:54;;;;;;;4.10;2.15;;;17.70;67.00;;;;;;5021056;28;20177;-81
2022/04/20 12:32:24;;;;;;;2.97;2.10;;;17.50;67.70;;;;;;5016090;28;20181;-81
2022/04/20 12:34:54;;;;;;;3.70;1.95;;;17.40;70.20;;;;;;5015651;28;20181;-81
2022/04/20 12:37:29;;;;;;;4.70;2.00;;;17.00;68.00;;;;;;5015121;28;20205;-80
2022/04/20 12:39:55;;;;;;;3.00;2.03;;;17.40;67.10;;;;;;5015499;28;20199;-80
2022/04/20 12:42:21;;;;;;;3.13;2.23;;;17.00;67.00;;;;;;5016021;28;20174;-80
2022/04/20 12:45:02;;;;;;;7.50;2.13;;;16.60;66.80;;;;;;5034227;28;20198;-79
2022/04/20 12:47:28;;;;;;;6.03;2.23;;;16.90;70.30;;;;;;5018514;28;20228;-81
2022/04/20 12:49:59;;;;;;;4.97;2.47;;;16.60;69.20;;;;;;5019222;28;20545;-81
2022/04/20 12:52:27;;;;;;;11.80;2.83;;;16.50;71.40;;;;;;5020181;28;20172;-80
2022/04/20 12:55:10;;;;;;;5.17;2.20;;;17.10;69.30;;;;;;5021118;28;20208;-82
2022/04/20 13:03:10;;;;;;;1.87;1.70;;;17.10;69.30;;;;;;5038335;28;20180;-81
2022/04/20 13:05:42;;;;;;;2.87;2.00;;;16.50;68.70;;;;;;5007321;28;20175;-81
2022/04/20 13:08:09;;;;;;;4.53;2.00;;;16.50;69.70;;;;;;4999609;28;20240;-80
2022/04/20 13:10:41;;;;;;;1.53;1.43;;;16.70;67.30;;;;;;4999429;28;20201;-81
2022/04/20 13:13:07;;;;;;;1.83;1.50;;;16.20;66.70;;;;;;4998326;28;20209;-81
2022/04/20 13:15:34;;;;;;;1.40;1.27;;;16.50;67.60;;;;;;5009545;28;20181;-80
2022/04/20 13:18:01;;;;;;;1.37;1.20;;;16.70;66.70;;;;;;5017220;28;20683;-83
2022/04/20 13:20:28;;;;;;;6.53;1.30;;;16.20;67.90;;;;;;5015744;28;20204;-82
2022/04/20 13:22:55;;;;;;;2.13;1.30;;;16.80;66.90;;;;;;5007814;28;20178;-82
2022/04/20 13:28:06;;;;;;;1.40;1.23;;;16.90;69.10;;;;;;5026524;28;20212;-82
2022/04/20 13:30:36;;;;;;;3.33;1.37;;;16.70;69.20;;;;;;5006138;28;20688;-83
2022/04/20 13:33:09;;;;;;;5.90;1.50;;;16.90;67.70;;;;;;5005714;28;20285;-85
2022/04/20 13:35:35;;;;;;;3.40;1.23;;;16.50;67.20;;;;;;5007672;28;20181;-83